createdAt,value
2019-03-02T00:01:09.708Z,19.17
2019-03-02T00:03:40.051Z,19.30
2019-03-02T00:06:08.843Z,18.62
2019-03-02T00:08:37.400Z,19.65
2019-03-02T00:11:05.970Z,18.85
2019-03-02T00:13:34.623Z,19.45
2019-03-02T00:16:04.256Z,18.80
2019-03-02T00:18:34.535Z,20.32
2019-03-02T00:21:03.070Z,19.17
2019-03-02T00:23:32.007Z,19.92
2019-03-02T00:26:01.318Z,19.98
2019-03-02T00:28:32.690Z,19.60
2019-03-02T00:31:01.135Z,19.82
2019-03-02T00:33:29.689Z,19.65
2019-03-02T00:35:58.603Z,20.25
2019-03-02T00:38:27.206Z,21.20
2019-03-02T00:40:55.731Z,19.52
2019-03-02T00:43:27.052Z,20.12
2019-03-02T00:45:54.702Z,19.95
2019-03-02T00:48:23.476Z,19.55
2019-03-02T00:50:52.676Z,19.95
2019-03-02T00:53:21.246Z,18.85
2019-03-02T00:55:50.051Z,19.07
2019-03-02T00:58:18.586Z,18.45
2019-03-02T01:00:49.972Z,18.80
2019-03-02T01:03:17.843Z,19.23
2019-03-02T01:05:46.400Z,18.25
2019-03-02T01:08:14.925Z,18.57
2019-03-02T01:10:43.700Z,18.65
2019-03-02T01:13:12.863Z,18.67
2019-03-02T01:15:44.024Z,18.25
2019-03-02T01:18:12.523Z,20.72
2019-03-02T01:20:41.062Z,18.48
2019-03-02T01:23:09.895Z,18.75
2019-03-02T01:25:38.446Z,19.70
2019-03-02T01:28:09.662Z,19.70
2019-03-02T01:30:38.098Z,18.67
2019-03-02T01:33:06.987Z,19.23
2019-03-02T01:35:35.538Z,19.02
2019-03-02T01:38:04.367Z,17.98
2019-03-02T01:40:32.913Z,18.40
2019-03-02T01:43:01.929Z,17.42
2019-03-02T01:45:31.831Z,18.32
2019-03-02T01:48:00.398Z,18.23
2019-03-02T01:50:29.331Z,17.25
2019-03-02T01:52:58.222Z,18.98
2019-03-02T01:55:27.791Z,17.62
2019-03-02T01:57:57.750Z,17.98
2019-03-02T02:00:29.031Z,18.02
2019-03-02T02:02:57.663Z,18.57
2019-03-02T02:05:28.700Z,18.25
2019-03-02T02:07:56.907Z,17.50
2019-03-02T02:10:25.771Z,17.25
2019-03-02T02:12:54.982Z,19.12
2019-03-02T02:15:25.859Z,18.15
2019-03-02T02:17:54.200Z,18.00
2019-03-02T02:20:22.859Z,17.77
2019-03-02T02:22:51.754Z,17.62
2019-03-02T02:25:20.670Z,16.42
2019-03-02T02:27:49.562Z,17.30
2019-03-02T02:30:24.548Z,16.00
2019-03-02T02:32:53.058Z,17.07
2019-03-02T02:35:21.631Z,17.45
2019-03-02T02:37:50.229Z,16.15
2019-03-02T02:40:19.449Z,15.75
2019-03-02T02:42:48.041Z,14.90
2019-03-02T02:45:17.171Z,14.00
2019-03-02T02:47:51.828Z,14.15
2019-03-02T02:50:17.154Z,12.85
2019-03-02T02:52:45.723Z,12.30
2019-03-02T02:55:14.319Z,12.70
2019-03-02T02:57:42.907Z,12.55
2019-03-02T03:00:19.416Z,11.18
2019-03-02T03:02:48.049Z,12.47
2019-03-02T03:05:17.491Z,11.43
2019-03-02T03:07:51.839Z,11.73
2019-03-02T03:10:27.721Z,11.53
2019-03-02T03:12:56.695Z,12.20
2019-03-02T03:15:25.450Z,13.75
2019-03-02T03:17:54.017Z,12.25
2019-03-02T03:20:22.558Z,12.88
2019-03-02T03:22:51.542Z,12.90
2019-03-02T03:25:20.142Z,11.97
2019-03-02T03:27:52.030Z,12.23
2019-03-02T03:30:33.772Z,12.37
2019-03-02T03:32:56.570Z,12.95
2019-03-02T03:35:20.410Z,12.65
2019-03-02T03:37:51.373Z,11.38
2019-03-02T03:40:20.168Z,12.50
2019-03-02T03:42:50.600Z,11.00
2019-03-02T03:45:19.164Z,11.12
2019-03-02T03:47:47.735Z,11.18
2019-03-02T03:50:16.357Z,11.05
2019-03-02T03:52:49.006Z,11.60
2019-03-02T03:55:24.194Z,11.33
2019-03-02T03:57:46.194Z,10.65
2019-03-02T04:00:15.245Z,10.43
2019-03-02T04:02:43.855Z,11.03
2019-03-02T04:05:13.079Z,10.20
2019-03-02T04:07:48.590Z,10.25
2019-03-02T04:10:12.843Z,10.78
2019-03-02T04:12:41.840Z,9.98
2019-03-02T04:15:10.612Z,10.98
2019-03-02T04:17:40.810Z,10.00
2019-03-02T04:20:13.831Z,10.13
2019-03-02T04:22:44.641Z,11.03
2019-03-02T04:25:18.003Z,10.90
2019-03-02T04:27:43.626Z,10.38
2019-03-02T04:30:12.539Z,10.23
2019-03-02T04:32:41.089Z,10.10
2019-03-02T04:35:09.712Z,10.58
2019-03-02T04:37:38.586Z,10.30
2019-03-02T04:40:07.632Z,10.28
2019-03-02T04:42:36.587Z,12.60
2019-03-02T04:45:05.959Z,10.53
2019-03-02T04:47:34.687Z,11.55
2019-03-02T04:50:03.567Z,11.60
2019-03-02T04:52:32.119Z,11.15
2019-03-02T04:55:00.712Z,11.68
2019-03-02T04:57:33.045Z,11.93
2019-03-02T05:00:00.043Z,11.40
2019-03-02T05:02:28.591Z,14.45
2019-03-02T05:04:57.523Z,14.70
2019-03-02T05:07:45.602Z,14.83
2019-03-02T05:10:33.459Z,14.47
2019-03-02T05:13:24.773Z,15.50
2019-03-02T05:16:11.127Z,15.60
2019-03-02T05:24:23.858Z,15.35
2019-03-02T05:27:04.431Z,14.93
2019-03-02T05:32:31.266Z,14.00
2019-03-02T05:37:59.224Z,15.72
2019-03-02T05:40:39.730Z,14.73
2019-03-02T05:48:55.136Z,15.95
2019-03-02T05:51:38.917Z,15.43
2019-03-02T05:54:18.450Z,14.87
2019-03-02T05:57:00.750Z,13.68
2019-03-02T05:59:41.988Z,13.93
2019-03-02T06:02:22.722Z,15.63
2019-03-02T06:05:03.526Z,16.30
2019-03-02T06:07:44.483Z,15.72
2019-03-02T06:10:26.349Z,15.78
2019-03-02T06:13:06.975Z,15.80
2019-03-02T06:15:47.290Z,16.05
2019-03-02T06:18:28.175Z,17.15
2019-03-02T06:21:10.870Z,16.10
2019-03-02T06:23:51.335Z,17.35
2019-03-02T06:26:35.180Z,17.30
2019-03-02T06:29:14.379Z,17.02
2019-03-02T06:31:55.098Z,18.42
2019-03-02T06:34:36.530Z,19.05
2019-03-02T06:37:16.980Z,19.02
2019-03-02T06:40:05.263Z,19.45
2019-03-02T06:42:54.049Z,18.50
2019-03-02T06:45:43.523Z,19.23
2019-03-02T06:48:32.290Z,19.07
2019-03-02T06:51:20.125Z,18.48
2019-03-02T06:54:08.934Z,19.32
2019-03-02T06:56:58.246Z,21.90
2019-03-02T06:59:47.639Z,19.52
2019-03-02T07:02:35.874Z,20.85
2019-03-02T07:05:25.359Z,19.98
2019-03-02T07:08:13.209Z,21.42
2019-03-02T07:33:51.231Z,32.28
2019-03-02T07:36:34.086Z,31.17
2019-03-02T07:39:14.239Z,31.17
2019-03-02T07:41:57.939Z,35.28
2019-03-02T07:44:37.967Z,33.80
2019-03-02T07:47:20.627Z,34.75
2019-03-02T07:50:00.847Z,35.38
2019-03-02T07:52:41.658Z,35.17
2019-03-02T07:55:22.588Z,36.30
2019-03-02T07:58:03.106Z,35.92
2019-03-02T08:00:43.551Z,35.23
2019-03-02T08:03:24.199Z,35.60
2019-03-02T08:06:05.875Z,35.65
2019-03-02T08:08:49.285Z,35.33
2019-03-02T08:11:29.887Z,33.85
2019-03-02T08:16:52.723Z,35.33
2019-03-02T08:19:33.577Z,34.45
2019-03-02T08:22:14.551Z,34.03
2019-03-02T08:24:55.755Z,32.78
2019-03-02T08:27:36.459Z,33.88
2019-03-02T08:30:17.123Z,32.85
2019-03-02T08:32:59.148Z,33.50
2019-03-02T08:35:39.639Z,33.08
2019-03-02T08:41:05.987Z,33.70
2019-03-02T08:46:33.600Z,33.28
2019-03-02T08:57:36.679Z,33.35
2019-03-02T09:03:07.344Z,33.13
2019-03-02T09:05:51.659Z,33.35
2019-03-02T09:19:35.971Z,34.27
2019-03-02T09:25:02.581Z,34.03
2019-03-02T09:44:52.871Z,32.35
2019-03-02T09:47:33.244Z,34.08
2019-03-02T09:50:14.496Z,35.38
2019-03-02T09:52:55.853Z,34.75
2019-03-02T09:55:36.735Z,34.30
2019-03-02T09:58:20.344Z,35.17
2019-03-02T10:01:01.236Z,35.00
2019-03-02T10:03:42.877Z,33.20
2019-03-02T10:06:25.310Z,33.95
2019-03-02T10:09:05.592Z,34.48
2019-03-02T10:11:46.242Z,33.80
2019-03-02T10:14:27.234Z,33.78
2019-03-02T10:17:07.628Z,33.35
2019-03-02T10:19:47.934Z,34.73
2019-03-02T10:22:28.499Z,35.43
2019-03-02T10:25:09.095Z,34.92
2019-03-02T10:27:49.559Z,33.63
2019-03-02T10:30:29.934Z,34.20
2019-03-02T10:33:10.710Z,34.18
2019-03-02T10:35:53.286Z,33.38
2019-03-02T10:38:34.171Z,33.50
2019-03-02T10:41:16.650Z,33.28
2019-03-02T10:43:57.594Z,34.27
2019-03-02T10:46:38.750Z,33.90
2019-03-02T10:49:19.227Z,33.90
2019-03-02T10:52:00.064Z,33.73
2019-03-02T10:54:40.892Z,34.33
2019-03-02T10:57:22.039Z,35.00
2019-03-02T11:00:02.763Z,34.33
2019-03-02T11:02:43.530Z,33.28
2019-03-02T11:05:43.350Z,33.30
2019-03-02T11:08:42.823Z,33.28
2019-03-02T11:11:42.537Z,32.28
2019-03-02T11:14:34.056Z,32.58
2019-03-02T11:20:24.343Z,32.65
2019-03-02T11:29:10.495Z,33.00
2019-03-02T11:32:11.151Z,32.13
2019-03-02T11:35:00.642Z,32.23
2019-03-02T11:41:05.039Z,29.52
2019-03-02T11:43:57.390Z,31.15
2019-03-02T11:46:47.903Z,31.10
2019-03-02T11:49:43.846Z,30.90
2019-03-02T11:52:44.936Z,31.17
2019-03-02T11:55:47.419Z,30.92
2019-03-02T11:58:41.318Z,31.20
2019-03-02T12:01:29.961Z,29.37
2019-03-02T12:04:24.564Z,29.18
2019-03-02T12:10:25.171Z,26.48
2019-03-02T12:13:31.524Z,28.15
2019-03-02T12:16:11.102Z,31.17
2019-03-02T12:24:23.293Z,33.15
2019-03-02T12:27:07.031Z,33.55
2019-03-02T12:35:34.434Z,25.80
2019-03-02T13:09:46.503Z,20.75
2019-03-02T13:12:46.855Z,18.73
2019-03-02T13:15:48.489Z,17.65
2019-03-02T13:18:35.163Z,18.62
2019-03-02T13:21:26.439Z,26.23
2019-03-02T13:24:22.459Z,27.65
2019-03-02T13:27:11.330Z,27.22
2019-03-02T13:30:10.909Z,25.60
2019-03-02T13:33:02.189Z,25.75
2019-03-02T13:36:04.648Z,25.17
2019-03-02T13:39:06.441Z,24.75
2019-03-02T13:42:05.380Z,23.80
2019-03-02T13:44:56.819Z,22.60
2019-03-02T13:47:48.679Z,20.97
2019-03-02T13:50:53.821Z,21.17
2019-03-02T13:53:53.594Z,14.50
2019-03-02T13:56:51.810Z,12.47
2019-03-02T13:59:52.094Z,12.47
2019-03-02T14:05:59.331Z,14.35
2019-03-02T14:09:06.523Z,13.68
2019-03-02T14:12:15.984Z,15.50
2019-03-02T14:15:23.032Z,14.40
2019-03-02T14:18:18.436Z,15.30
2019-03-02T14:21:25.381Z,16.40
2019-03-02T14:24:32.663Z,15.20
2019-03-02T14:27:39.599Z,13.98
2019-03-02T14:30:46.539Z,15.53
2019-03-02T14:33:53.492Z,14.73
2019-03-02T14:36:46.320Z,14.70
2019-03-02T14:39:53.254Z,14.85
2019-03-02T14:43:00.187Z,13.55
2019-03-02T14:46:07.141Z,13.38
2019-03-02T14:49:14.102Z,12.55
2019-03-02T14:52:21.036Z,11.53
2019-03-02T14:55:29.326Z,12.58
2019-03-02T14:58:26.498Z,11.57
2019-03-02T15:01:36.109Z,11.30
2019-03-02T15:04:43.003Z,11.68
2019-03-02T15:07:50.715Z,11.70
2019-03-02T15:10:46.251Z,10.63
2019-03-02T15:13:40.233Z,10.95
2019-03-02T15:16:47.413Z,11.30
2019-03-02T15:19:56.029Z,10.50
2019-03-02T15:25:51.707Z,9.18
2019-03-02T15:31:59.675Z,7.75
2019-03-02T15:34:54.036Z,7.08
2019-03-02T15:38:05.333Z,7.37
2019-03-02T15:41:10.281Z,6.58
2019-03-02T15:47:13.717Z,5.08
2019-03-02T15:50:19.163Z,4.58
2019-03-02T15:53:16.222Z,4.53
2019-03-02T15:56:16.129Z,5.10
2019-03-02T16:02:00.220Z,4.78
2019-03-02T16:07:23.247Z,4.15
2019-03-02T16:12:47.571Z,4.03
2019-03-02T16:18:17.425Z,3.50
2019-03-02T16:26:33.381Z,4.08
2019-03-02T16:32:02.814Z,5.30
2019-03-02T16:37:28.410Z,4.65
2019-03-02T16:42:55.015Z,4.58
2019-03-02T16:48:40.541Z,4.10
2019-03-02T16:51:40.710Z,4.30
2019-03-02T16:54:40.270Z,4.75
2019-03-02T16:57:41.373Z,4.10
2019-03-02T17:00:41.964Z,4.58
2019-03-02T17:03:45.699Z,2.98
2019-03-02T17:06:46.500Z,3.90
2019-03-02T17:09:49.438Z,3.70
2019-03-02T17:15:49.683Z,3.62
2019-03-02T17:18:49.581Z,3.25
2019-03-02T17:21:56.211Z,4.28
2019-03-02T17:24:45.047Z,3.62
2019-03-02T17:27:34.832Z,3.22
2019-03-02T17:33:41.721Z,3.42
2019-03-02T17:36:47.824Z,2.70
2019-03-02T17:39:49.004Z,2.45
2019-03-02T17:45:11.672Z,2.25
2019-03-02T17:48:05.109Z,2.00
2019-03-02T17:50:58.468Z,2.20
2019-03-02T17:53:43.340Z,2.08
2019-03-02T17:59:09.000Z,2.55
2019-03-02T18:04:39.280Z,2.72
2019-03-02T18:10:08.871Z,2.47
2019-03-02T18:18:21.453Z,2.72
2019-03-02T18:23:48.634Z,3.62
2019-03-02T18:34:47.397Z,3.12
2019-03-02T18:37:30.462Z,3.17
2019-03-02T18:45:52.995Z,2.75
2019-03-02T18:48:52.561Z,2.60
2019-03-02T18:51:52.247Z,2.75
2019-03-02T18:54:32.578Z,2.80
2019-03-02T18:57:14.502Z,2.80
2019-03-02T18:59:53.586Z,2.72
2019-03-02T19:02:44.076Z,2.67
2019-03-02T19:05:31.031Z,1.80
2019-03-02T19:08:19.121Z,2.35
2019-03-02T19:11:07.224Z,2.25
2019-03-02T19:13:55.315Z,1.87
2019-03-02T19:16:43.403Z,1.80
2019-03-02T19:19:24.554Z,1.70
2019-03-02T19:22:05.141Z,1.90
2019-03-02T19:24:45.679Z,2.10
2019-03-02T19:27:26.290Z,1.95
2019-03-02T19:30:05.322Z,1.82
2019-03-02T19:32:53.168Z,2.12
2019-03-02T19:35:41.023Z,1.80
2019-03-02T19:38:29.115Z,1.98
2019-03-02T19:41:17.020Z,1.90
2019-03-02T19:44:04.911Z,2.27
2019-03-02T19:46:53.007Z,1.98
2019-03-02T19:49:40.855Z,1.72
2019-03-02T19:52:28.710Z,2.20
2019-03-02T19:58:23.831Z,2.15
2019-03-02T20:01:11.750Z,1.65
2019-03-02T20:03:59.870Z,1.72
2019-03-02T20:06:47.979Z,1.80
2019-03-02T20:09:36.058Z,2.00
2019-03-02T20:12:24.171Z,1.75
2019-03-02T20:15:12.795Z,2.10
2019-03-02T20:18:00.889Z,2.00
2019-03-02T20:20:41.502Z,2.10
2019-03-02T20:23:22.299Z,2.12
2019-03-02T20:26:02.967Z,2.65
2019-03-02T20:28:43.663Z,3.08
2019-03-02T20:31:24.187Z,3.52
2019-03-02T20:34:05.666Z,3.60
2019-03-02T20:36:46.843Z,3.37
2019-03-02T20:39:27.667Z,3.30
2019-03-02T20:42:09.179Z,3.67
2019-03-02T20:44:50.305Z,3.90
2019-03-02T20:47:30.742Z,3.47
2019-03-02T20:50:11.295Z,3.60
2019-03-02T20:52:55.028Z,3.80
2019-03-02T20:55:36.264Z,3.25
2019-03-02T20:58:16.943Z,3.67
2019-03-02T21:00:58.066Z,3.90
2019-03-02T21:03:38.695Z,3.40
2019-03-02T21:06:19.875Z,3.05
2019-03-02T21:09:00.663Z,2.83
2019-03-02T21:11:41.545Z,3.37
2019-03-02T21:14:22.516Z,3.15
2019-03-02T21:17:03.727Z,3.02
2019-03-02T21:19:44.599Z,3.17
2019-03-02T21:22:25.209Z,2.70
2019-03-02T21:25:05.768Z,2.95
2019-03-02T21:27:46.740Z,2.85
2019-03-02T21:30:27.021Z,3.05
2019-03-02T21:33:07.476Z,2.98
2019-03-02T21:35:48.525Z,2.85
2019-03-02T21:38:29.977Z,3.08
2019-03-02T21:41:11.010Z,3.27
2019-03-02T21:43:51.919Z,2.70
2019-03-02T21:46:32.591Z,2.65
2019-03-02T21:49:13.083Z,3.25
2019-03-02T21:54:35.919Z,3.17
2019-03-02T22:00:00.364Z,2.60
2019-03-02T22:02:41.091Z,3.50
2019-03-02T22:05:24.911Z,3.60
2019-03-02T22:08:05.475Z,2.62
2019-03-02T22:10:49.987Z,3.42
2019-03-02T22:13:34.108Z,3.50
2019-03-02T22:32:58.670Z,4.30
2019-03-02T22:38:25.654Z,3.77
2019-03-02T22:41:06.479Z,4.62
2019-03-02T22:46:33.291Z,6.67
2019-03-02T22:49:13.915Z,8.65
2019-03-02T22:51:54.951Z,7.62
2019-03-02T22:54:35.446Z,6.85
2019-03-02T22:57:16.706Z,7.85
2019-03-02T22:59:57.603Z,8.23
2019-03-02T23:02:37.916Z,8.60
2019-03-02T23:05:18.623Z,7.53
2019-03-02T23:07:59.795Z,9.13
2019-03-02T23:10:40.495Z,8.58
2019-03-02T23:13:21.172Z,8.68
2019-03-02T23:16:01.736Z,9.15
2019-03-02T23:18:42.632Z,8.63
2019-03-02T23:21:23.015Z,8.48
2019-03-02T23:24:03.426Z,8.63
2019-03-02T23:26:43.962Z,8.58
2019-03-02T23:29:25.023Z,8.50
2019-03-02T23:32:05.847Z,8.43
2019-03-02T23:34:46.431Z,8.85
2019-03-02T23:37:27.423Z,8.40
2019-03-02T23:40:08.669Z,8.45
2019-03-02T23:42:49.722Z,9.15
2019-03-02T23:45:30.641Z,9.03
2019-03-02T23:48:11.262Z,8.75
2019-03-02T23:50:51.867Z,8.10
2019-03-02T23:53:32.611Z,8.80
2019-03-02T23:56:13.199Z,8.28
2019-03-02T23:58:54.143Z,9.08
